Time;durP1;ratioP1;P1;durP2;ratioP2;P2;SDS_P1;SDS_P2;PMS_P1;PMS_P2;Temp;Humidity;BMP_temperature;BMP_pressure;BME280_temperature;BME280_humidity;BME280_pressure;Samples;Min_cycle;Max_cycle;Signal;HPM_P1;HPM_P2
2022/05/16 00:00:59;;;;;;;9.88;4.63;;;15.10;61.10;;;;;;4986829;28;20057;-80
2022/05/16 00:03:25;;;;;;;16.35;5.43;;;15.00;61.20;;;;;;5014810;28;20092;-80
2022/05/16 00:05:51;;;;;;;11.25;4.53;;;15.00;61.20;;;;;;5007884;28;20070;-80
2022/05/16 00:08:17;;;;;;;10.13;4.32;;;15.00;61.30;;;;;;4977913;28;20038;-80
2022/05/16 00:10:42;;;;;;;9.23;4.15;;;15.00;61.40;;;;;;4980978;28;20046;-80
2022/05/16 00:13:08;;;;;;;11.05;5.30;;;14.90;61.50;;;;;;4996389;28;20060;-80
2022/05/16 00:15:34;;;;;;;12.15;5.40;;;14.90;61.60;;;;;;5013238;28;20034;-79
2022/05/16 00:18:00;;;;;;;8.90;5.13;;;14.90;61.70;;;;;;5014251;28;20056;-80
2022/05/16 00:20:27;;;;;;;10.88;4.90;;;14.80;61.60;;;;;;5012593;28;20489;-80
2022/05/16 00:22:53;;;;;;;11.05;4.85;;;14.80;61.60;;;;;;4977283;28;20072;-80
2022/05/16 00:25:18;;;;;;;8.95;4.78;;;14.80;61.80;;;;;;4978622;28;20073;-79
2022/05/16 00:27:45;;;;;;;11.18;4.63;;;14.80;61.70;;;;;;4979546;28;20899;-80
2022/05/16 00:30:13;;;;;;;11.77;5.07;;;14.70;61.80;;;;;;4994711;28;20482;-80
2022/05/16 00:32:39;;;;;;;9.73;4.82;;;14.70;61.80;;;;;;5004925;28;20084;-79
2022/05/16 00:35:08;;;;;;;10.45;4.90;;;14.70;61.80;;;;;;5006424;28;20046;-80
2022/05/16 00:37:34;;;;;;;8.32;4.50;;;14.70;61.90;;;;;;5009795;28;20056;-80
2022/05/16 00:39:59;;;;;;;10.00;4.70;;;14.70;62.30;;;;;;5013600;28;20396;-79
2022/05/16 00:42:25;;;;;;;10.02;4.43;;;14.60;61.70;;;;;;5010465;28;20041;-79
2022/05/16 00:44:51;;;;;;;9.63;4.32;;;14.70;61.80;;;;;;4996916;28;20041;-79
2022/05/16 00:47:17;;;;;;;6.93;3.38;;;14.70;61.70;;;;;;5011284;28;20046;-79
2022/05/16 00:49:46;;;;;;;8.88;4.35;;;14.70;61.80;;;;;;5011703;28;20045;-79
2022/05/16 00:52:25;;;;;;;6.97;2.95;;;14.70;61.20;;;;;;5012257;28;20081;-79
2022/05/16 00:54:55;;;;;;;8.80;4.72;;;14.70;61.00;;;;;;5013769;28;20050;-79
2022/05/16 00:57:31;;;;;;;9.57;4.25;;;14.70;61.20;;;;;;5007135;28;20515;-79
2022/05/16 01:00:19;;;;;;;7.25;4.03;;;14.80;61.10;;;;;;5013156;28;20050;-80
2022/05/16 01:05:37;;;;;;;9.15;4.43;;;14.80;60.90;;;;;;5000553;28;20060;-80
2022/05/16 01:08:06;;;;;;;7.70;3.30;;;14.80;60.80;;;;;;4979974;28;20478;-80
2022/05/16 01:10:33;;;;;;;6.88;4.45;;;14.80;60.50;;;;;;4995652;28;20140;-79
2022/05/16 01:13:00;;;;;;;9.85;3.55;;;14.80;60.90;;;;;;5010962;28;20061;-80
2022/05/16 01:15:32;;;;;;;8.98;3.78;;;14.80;60.40;;;;;;5002290;28;20046;-79
2022/05/16 01:17:58;;;;;;;8.55;4.22;;;14.90;60.30;;;;;;5002976;28;20050;-79
2022/05/16 01:20:48;;;;;;;10.60;5.15;;;14.90;60.30;;;;;;4981105;28;20126;-80
2022/05/16 01:23:17;;;;;;;9.32;4.25;;;14.90;60.20;;;;;;5013042;28;20501;-80
2022/05/16 01:25:43;;;;;;;11.13;4.55;;;14.90;60.20;;;;;;5000017;28;20111;-80
2022/05/16 01:28:09;;;;;;;10.05;4.72;;;14.90;60.10;;;;;;5010205;28;20050;-80
2022/05/16 01:30:46;;;;;;;9.35;4.18;;;14.90;60.00;;;;;;4998198;28;20077;-79
2022/05/16 01:33:12;;;;;;;11.38;4.90;;;14.90;60.00;;;;;;5002407;28;20042;-79
2022/05/16 01:35:38;;;;;;;9.07;4.60;;;14.90;60.10;;;;;;5017201;28;20096;-79
2022/05/16 01:38:19;;;;;;;9.20;4.82;;;14.90;60.00;;;;;;5003831;28;20042;-79
2022/05/16 01:40:55;;;;;;;9.52;4.47;;;14.90;60.00;;;;;;4997736;28;20038;-80
2022/05/16 01:43:24;;;;;;;10.55;4.72;;;14.90;60.20;;;;;;4999104;28;20047;-79
2022/05/16 01:45:50;;;;;;;12.20;4.57;;;14.80;60.20;;;;;;4990273;28;20113;-79
2022/05/16 01:48:16;;;;;;;8.82;4.75;;;14.80;60.30;;;;;;5006515;28;20038;-79
2022/05/16 01:50:44;;;;;;;8.20;4.32;;;14.80;60.40;;;;;;5017316;28;20046;-79
2022/05/16 01:53:10;;;;;;;9.20;4.53;;;14.70;60.40;;;;;;4987268;28;20053;-79
2022/05/16 01:55:36;;;;;;;9.93;4.60;;;14.60;60.40;;;;;;4997859;28;20038;-79
2022/05/16 01:58:02;;;;;;;11.48;4.95;;;14.70;60.60;;;;;;5008037;28;20175;-79
2022/05/16 02:00:30;;;;;;;10.68;5.50;;;14.60;60.70;;;;;;5002817;28;20065;-79
2022/05/16 02:02:56;;;;;;;7.70;4.70;;;14.50;60.80;;;;;;5006104;28;20076;-79
2022/05/16 02:05:23;;;;;;;8.73;4.80;;;14.50;61.00;;;;;;5001874;28;20082;-80
2022/05/16 02:07:51;;;;;;;10.70;5.40;;;14.40;61.20;;;;;;5004096;28;20495;-80
2022/05/16 02:10:19;;;;;;;9.75;5.55;;;14.30;61.20;;;;;;4999151;28;20060;-79
2022/05/16 02:12:45;;;;;;;9.27;4.90;;;14.20;61.40;;;;;;4993241;28;20054;-79
2022/05/16 02:15:14;;;;;;;9.95;4.30;;;14.20;61.60;;;;;;4981542;28;20474;-79
2022/05/16 02:17:40;;;;;;;10.10;4.50;;;14.10;61.80;;;;;;5003379;28;20041;-79
2022/05/16 02:20:06;;;;;;;10.15;5.57;;;14.00;61.80;;;;;;5018563;28;20508;-79
2022/05/16 02:25:17;;;;;;;;;;;13.90;62.10;;;;;;5018141;28;20060;-80
2022/05/16 02:27:47;;;;;;;6.70;3.90;;;13.80;61.50;;;;;;4997825;28;19925;-79
2022/05/16 02:30:14;;;;;;;11.20;5.10;;;13.90;62.10;;;;;;5014754;28;20129;-80
2022/05/16 02:32:39;;;;;;;11.15;4.80;;;13.80;62.10;;;;;;5014963;28;20042;-79
2022/05/16 02:35:06;;;;;;;10.05;5.10;;;13.80;62.30;;;;;;4998873;28;20052;-80
2022/05/16 02:37:32;;;;;;;9.48;4.35;;;13.80;62.30;;;;;;4997644;28;20047;-80
2022/05/16 02:39:57;;;;;;;15.63;5.38;;;13.80;62.20;;;;;;4997372;28;20046;-80
2022/05/16 02:42:23;;;;;;;6.13;4.72;;;13.80;62.40;;;;;;4996620;28;20484;-80
2022/05/16 02:44:52;;;;;;;12.25;5.53;;;13.70;62.40;;;;;;4997765;28;20129;-79
2022/05/16 02:47:19;;;;;;;8.23;4.78;;;13.70;62.50;;;;;;5009711;28;20489;-80
2022/05/16 02:49:45;;;;;;;9.98;4.95;;;13.60;62.60;;;;;;5014231;28;20053;-80
2022/05/16 02:52:11;;;;;;;10.65;5.35;;;13.60;62.60;;;;;;5006103;28;20038;-80
2022/05/16 02:54:37;;;;;;;10.35;4.53;;;13.50;62.70;;;;;;4995615;28;20050;-80
2022/05/16 02:57:04;;;;;;;12.10;4.50;;;13.50;62.70;;;;;;5016099;28;20046;-80
2022/05/16 02:59:33;;;;;;;8.52;4.30;;;13.50;62.80;;;;;;5013744;28;20049;-79
2022/05/16 03:02:00;;;;;;;8.38;4.90;;;13.50;62.80;;;;;;5014410;28;20125;-79
2022/05/16 03:04:26;;;;;;;8.10;4.30;;;13.50;62.90;;;;;;5015007;28;20112;-79
2022/05/16 03:06:51;;;;;;;11.82;4.90;;;13.40;62.80;;;;;;4997062;28;20052;-80
2022/05/16 03:09:17;;;;;;;8.85;4.63;;;13.40;62.80;;;;;;5007388;28;20141;-80
2022/05/16 03:11:44;;;;;;;10.18;4.47;;;13.40;62.80;;;;;;4998187;28;20120;-80
2022/05/16 03:14:11;;;;;;;9.35;4.20;;;13.40;62.90;;;;;;5012263;28;20116;-79
2022/05/16 03:16:37;;;;;;;10.77;4.72;;;13.40;62.90;;;;;;4995893;28;20042;-79
2022/05/16 03:19:03;;;;;;;11.25;5.07;;;13.40;62.90;;;;;;5004332;28;20049;-80
2022/05/16 03:21:30;;;;;;;13.38;4.35;;;13.30;62.90;;;;;;5015723;28;20065;-80
2022/05/16 03:23:59;;;;;;;9.07;4.65;;;13.30;62.90;;;;;;4992119;28;20503;-80
2022/05/16 03:26:25;;;;;;;8.43;3.85;;;13.30;63.00;;;;;;5015146;28;20045;-79
2022/05/16 03:28:51;;;;;;;12.27;4.80;;;13.30;63.00;;;;;;4988531;28;20088;-80
2022/05/16 03:31:17;;;;;;;12.98;4.97;;;13.30;63.00;;;;;;4996050;28;20047;-80
2022/05/16 03:33:43;;;;;;;11.50;4.28;;;13.20;62.90;;;;;;4999755;28;20046;-80
2022/05/16 03:36:09;;;;;;;11.32;4.88;;;13.20;63.00;;;;;;5015501;28;20045;-80
2022/05/16 03:41:20;;;;;;;10.02;4.90;;;13.20;63.00;;;;;;5015202;28;20092;-80
2022/05/16 03:43:45;;;;;;;8.40;3.78;;;13.10;63.40;;;;;;5014187;28;20042;-80
2022/05/16 03:46:12;;;;;;;11.25;4.60;;;13.10;63.00;;;;;;5006384;28;20057;-80
2022/05/16 03:48:38;;;;;;;8.93;4.20;;;13.10;63.10;;;;;;4978302;28;20129;-79
2022/05/16 03:51:05;;;;;;;12.35;4.13;;;13.10;63.10;;;;;;5013554;28;20069;-80
2022/05/16 03:53:31;;;;;;;11.18;3.75;;;13.10;63.10;;;;;;5014850;28;20056;-79
2022/05/16 03:55:57;;;;;;;12.80;4.05;;;13.10;63.00;;;;;;4997620;28;20038;-80
2022/05/16 03:58:22;;;;;;;9.43;3.50;;;13.10;63.20;;;;;;4995338;28;20046;-80
2022/05/16 04:00:48;;;;;;;9.60;3.92;;;13.00;63.10;;;;;;5010768;28;20118;-81
2022/05/16 04:03:15;;;;;;;9.25;3.97;;;13.00;63.10;;;;;;5014995;28;20132;-80
2022/05/16 04:05:41;;;;;;;12.23;4.47;;;13.00;63.10;;;;;;5001827;28;20401;-80
2022/05/16 04:08:07;;;;;;;11.60;4.15;;;13.00;63.20;;;;;;4995042;28;20485;-80
2022/05/16 04:10:33;;;;;;;10.73;4.10;;;13.00;63.20;;;;;;4981917;28;20054;-81
2022/05/16 04:12:58;;;;;;;12.43;4.47;;;13.00;63.10;;;;;;4995616;28;20409;-81
2022/05/16 04:15:25;;;;;;;7.85;3.70;;;13.00;63.00;;;;;;4993802;28;20045;-78
2022/05/16 04:17:51;;;;;;;9.18;3.78;;;13.00;63.10;;;;;;5014293;28;20145;-79
2022/05/16 04:20:19;;;;;;;9.05;3.58;;;13.00;63.00;;;;;;5011660;28;20030;-79
2022/05/16 04:22:45;;;;;;;10.85;4.05;;;13.00;63.10;;;;;;4996506;28;20065;-79
2022/05/16 04:25:15;;;;;;;11.68;3.72;;;13.10;63.10;;;;;;4994624;28;20389;-79
2022/05/16 04:27:41;;;;;;;7.47;3.95;;;13.00;63.10;;;;;;4995468;28;20050;-79
2022/05/16 04:30:08;;;;;;;12.20;4.40;;;13.00;63.10;;;;;;4983091;28;20137;-79
2022/05/16 04:32:34;;;;;;;12.20;4.68;;;13.00;63.10;;;;;;4996708;28;20081;-79
2022/05/16 04:35:01;;;;;;;10.85;4.55;;;13.00;63.00;;;;;;5008785;28;20066;-80
2022/05/16 04:37:32;;;;;;;12.70;4.00;;;13.00;63.10;;;;;;4995719;28;20054;-79
2022/05/16 04:40:02;;;;;;;12.38;4.03;;;13.00;63.20;;;;;;4997284;28;20081;-80
2022/05/16 04:42:44;;;;;;;11.10;3.63;;;13.00;63.30;;;;;;5003356;28;20101;-79
2022/05/16 04:45:09;;;;;;;9.52;3.63;;;13.00;63.20;;;;;;4981350;28;20398;-79
2022/05/16 04:47:35;;;;;;;11.88;3.83;;;13.00;63.10;;;;;;5013900;28;20046;-79
2022/05/16 04:50:01;;;;;;;8.02;3.92;;;13.10;63.30;;;;;;4990801;28;20038;-80
2022/05/16 04:52:28;;;;;;;8.60;3.83;;;13.10;63.60;;;;;;5012547;28;20481;-80
2022/05/16 04:54:54;;;;;;;8.10;3.75;;;13.10;63.60;;;;;;5002800;28;20057;-79
2022/05/16 04:57:20;;;;;;;10.27;3.67;;;13.10;63.10;;;;;;4980581;28;20079;-80
2022/05/16 04:59:49;;;;;;;9.70;3.72;;;13.10;63.10;;;;;;5013505;28;20049;-80
2022/05/16 05:02:16;;;;;;;8.05;3.60;;;13.20;63.10;;;;;;4977961;28;20038;-80
2022/05/16 05:04:42;;;;;;;11.85;4.35;;;13.20;63.00;;;;;;4990630;28;20400;-79
2022/05/16 05:07:08;;;;;;;11.02;3.63;;;13.30;63.00;;;;;;4995409;28;20057;-80
2022/05/16 05:14:31;;;;;;;11.20;3.55;;;13.30;62.90;;;;;;4997395;28;20046;-78
2022/05/16 05:15:05;;;;;;;;;;;13.40;62.70;;;;;;5011737;28;20046;-80
2022/05/16 05:17:30;;;;;;;9.30;3.70;;;13.50;62.70;;;;;;4995188;28;20004;-80
2022/05/16 05:19:56;;;;;;;11.63;4.05;;;13.50;62.70;;;;;;4994267;28;20046;-80
2022/05/16 05:22:22;;;;;;;11.27;4.20;;;13.60;62.60;;;;;;5009322;28;20081;-80
2022/05/16 05:24:47;;;;;;;7.03;3.65;;;13.80;62.70;;;;;;5010506;28;20128;-81
2022/05/16 05:27:13;;;;;;;7.68;3.08;;;13.90;62.70;;;;;;5011827;28;20088;-79
2022/05/16 05:29:38;;;;;;;11.63;3.58;;;14.00;62.60;;;;;;5011991;28;20030;-80
2022/05/16 05:32:06;;;;;;;7.95;3.22;;;14.20;62.40;;;;;;5009120;28;20519;-79
2022/05/16 05:34:34;;;;;;;10.00;4.00;;;14.40;62.00;;;;;;5033544;28;20045;-80
2022/05/16 05:37:00;;;;;;;9.98;3.38;;;14.60;61.90;;;;;;5019757;28;20045;-80
2022/05/16 05:39:26;;;;;;;9.85;3.50;;;14.80;61.60;;;;;;5013187;28;20057;-80
2022/05/16 05:41:52;;;;;;;13.80;3.70;;;15.00;61.00;;;;;;4974439;28;20397;-80
2022/05/16 05:44:17;;;;;;;11.55;4.07;;;15.20;60.50;;;;;;4996503;28;20046;-79
2022/05/16 05:46:43;;;;;;;12.20;3.90;;;15.40;59.80;;;;;;5001471;28;20041;-80
2022/05/16 05:49:12;;;;;;;10.13;3.88;;;15.60;59.20;;;;;;5030566;28;20073;-79
2022/05/16 05:51:38;;;;;;;11.05;3.28;;;15.80;58.70;;;;;;5006634;28;20116;-79
2022/05/16 05:54:04;;;;;;;8.18;3.70;;;15.90;58.70;;;;;;4995513;28;20474;-79
2022/05/16 05:56:30;;;;;;;11.57;3.40;;;16.10;58.00;;;;;;4990741;28;20042;-79
2022/05/16 05:58:56;;;;;;;7.38;3.17;;;16.20;57.80;;;;;;5016991;28;20042;-80
2022/05/16 06:01:22;;;;;;;9.75;3.50;;;16.40;57.20;;;;;;5009896;28;20042;-80
2022/05/16 06:03:48;;;;;;;8.98;3.42;;;16.50;57.10;;;;;;5017858;28;20106;-78
2022/05/16 06:06:14;;;;;;;9.10;3.42;;;16.70;57.00;;;;;;5028794;28;20038;-79
2022/05/16 06:08:40;;;;;;;9.75;3.60;;;16.80;56.80;;;;;;4980832;28;20055;-80
2022/05/16 06:11:05;;;;;;;11.98;3.58;;;17.10;56.60;;;;;;4997135;28;20082;-80
2022/05/16 06:13:31;;;;;;;7.80;2.85;;;17.20;56.10;;;;;;5003214;28;20057;-80
2022/05/16 06:15:57;;;;;;;11.73;3.55;;;17.40;55.90;;;;;;5032713;28;20045;-79
2022/05/16 06:18:22;;;;;;;12.30;3.63;;;17.60;55.50;;;;;;5014949;28;20124;-80
2022/05/16 06:20:48;;;;;;;8.20;3.50;;;17.70;55.20;;;;;;4998265;28;20497;-80
2022/05/16 06:23:14;;;;;;;7.53;2.90;;;17.80;54.80;;;;;;4993000;28;20046;-80
2022/05/16 06:25:42;;;;;;;10.13;3.83;;;17.90;54.90;;;;;;4982409;28;20050;-81
2022/05/16 06:28:25;;;;;;;10.93;2.95;;;18.10;54.80;;;;;;5013398;28;20084;-81
2022/05/16 06:30:52;;;;;;;11.20;3.70;;;18.30;54.50;;;;;;5015858;28;20050;-80
2022/05/16 06:33:22;;;;;;;11.23;4.03;;;18.60;54.00;;;;;;5004314;28;20046;-80
2022/05/16 06:35:49;;;;;;;10.15;3.58;;;18.80;53.40;;;;;;5005650;28;20503;-81
2022/05/16 06:38:17;;;;;;;6.95;3.03;;;18.90;53.10;;;;;;4996709;28;20374;-80
2022/05/16 06:40:48;;;;;;;8.07;3.17;;;18.90;52.90;;;;;;4988025;28;20046;-80
2022/05/16 06:43:16;;;;;;;9.00;3.17;;;19.00;52.80;;;;;;4998259;28;20049;-80
2022/05/16 06:45:42;;;;;;;10.75;3.63;;;19.10;52.80;;;;;;5035713;28;20124;-81
2022/05/16 06:48:09;;;;;;;11.90;3.70;;;19.20;52.60;;;;;;4997739;28;20100;-81
2022/05/16 06:50:36;;;;;;;10.18;3.28;;;19.20;52.40;;;;;;5015930;28;20485;-78
2022/05/16 06:53:03;;;;;;;9.55;3.00;;;19.40;52.10;;;;;;4986999;28;20489;-80
2022/05/16 06:55:29;;;;;;;8.40;3.30;;;19.50;52.20;;;;;;4998330;28;20054;-80
2022/05/16 06:57:55;;;;;;;8.00;3.03;;;19.60;51.80;;;;;;4990923;28;20069;-79
2022/05/16 07:00:20;;;;;;;10.15;3.45;;;19.70;51.70;;;;;;4978412;28;20486;-79
2022/05/16 07:02:46;;;;;;;9.32;3.45;;;19.80;51.50;;;;;;5020230;28;20041;-79
2022/05/16 07:05:13;;;;;;;10.07;3.38;;;20.00;50.80;;;;;;5014958;28;20462;-79
2022/05/16 07:07:38;;;;;;;8.27;3.15;;;20.10;50.20;;;;;;5013139;28;20034;-81
2022/05/16 07:10:05;;;;;;;9.43;3.08;;;20.30;49.80;;;;;;5014133;28;20383;-78
2022/05/16 07:12:31;;;;;;;8.45;3.22;;;20.40;49.70;;;;;;4999082;28;20157;-78
2022/05/16 07:14:57;;;;;;;10.43;3.55;;;20.50;49.90;;;;;;4996849;28;20529;-78
2022/05/16 07:17:23;;;;;;;8.18;3.03;;;20.60;49.70;;;;;;4991524;28;20056;-79
2022/05/16 07:19:49;;;;;;;7.55;3.20;;;20.80;49.30;;;;;;5013578;28;20393;-80
2022/05/16 07:22:19;;;;;;;8.45;3.00;;;21.00;48.80;;;;;;4986453;28;20054;-78
2022/05/16 07:24:45;;;;;;;8.10;3.10;;;21.10;48.40;;;;;;4995185;28;20049;-79
2022/05/16 07:29:56;;;;;;;10.45;3.15;;;21.30;48.10;;;;;;4996711;28;20088;-77
2022/05/16 07:32:22;;;;;;;7.68;2.78;;;21.30;47.90;;;;;;4991940;28;20049;-78
2022/05/16 07:34:48;;;;;;;9.25;3.08;;;21.30;48.10;;;;;;5023707;28;20390;-79
2022/05/16 07:37:14;;;;;;;11.82;3.05;;;21.30;47.80;;;;;;4996740;28;20081;-80
2022/05/16 07:39:40;;;;;;;10.60;4.00;;;21.40;47.70;;;;;;4994768;28;20093;-79
2022/05/16 07:42:08;;;;;;;6.72;3.22;;;21.50;47.80;;;;;;5014906;28;20034;-79
2022/05/16 07:44:38;;;;;;;9.63;3.42;;;21.70;47.80;;;;;;4989975;28;20053;-78
2022/05/16 07:47:04;;;;;;;7.13;2.30;;;21.80;47.60;;;;;;4996314;28;20057;-79
2022/05/16 07:49:30;;;;;;;7.18;3.25;;;22.00;47.60;;;;;;4980323;28;20096;-79
2022/05/16 07:51:56;;;;;;;9.00;3.10;;;22.20;46.90;;;;;;5002174;28;20077;-79
2022/05/16 07:54:22;;;;;;;10.20;3.55;;;22.40;46.10;;;;;;5003989;28;20417;-82
2022/05/16 07:56:48;;;;;;;9.85;3.05;;;22.50;45.70;;;;;;4996988;28;20046;-80
2022/05/16 07:59:14;;;;;;;10.23;3.40;;;22.60;45.70;;;;;;5004722;28;20056;-81
2022/05/16 08:01:42;;;;;;;9.30;2.80;;;22.70;45.60;;;;;;5005109;28;20088;-79
2022/05/16 08:04:08;;;;;;;8.88;2.90;;;22.80;45.50;;;;;;4995937;28;20053;-80
2022/05/16 08:06:35;;;;;;;9.02;2.88;;;22.90;44.90;;;;;;5032181;28;20044;-80
2022/05/16 08:11:46;;;;;;;8.75;3.42;;;22.90;45.10;;;;;;5004037;28;20043;-79
2022/05/16 08:14:13;;;;;;;9.90;3.42;;;23.00;45.50;;;;;;5008647;28;20097;-77
2022/05/16 08:16:39;;;;;;;9.80;3.60;;;23.10;45.20;;;;;;4994712;28;20050;-78
2022/05/16 08:19:05;;;;;;;9.57;3.53;;;23.20;45.20;;;;;;4962115;28;20526;-78
2022/05/16 08:21:31;;;;;;;7.38;3.08;;;23.30;44.60;;;;;;5012478;28;20053;-78
2022/05/16 08:23:56;;;;;;;9.80;4.32;;;23.50;44.50;;;;;;5010948;28;20791;-77
2022/05/16 08:26:23;;;;;;;12.77;5.40;;;23.60;44.90;;;;;;4995231;28;20465;-79
2022/05/16 08:28:49;;;;;;;8.93;3.67;;;23.60;44.50;;;;;;4990979;28;20058;-77
2022/05/16 08:31:15;;;;;;;8.45;3.90;;;23.60;43.90;;;;;;4979974;28;20054;-78
2022/05/16 08:33:41;;;;;;;7.80;3.00;;;23.60;44.40;;;;;;4988643;28;20540;-80
2022/05/16 08:41:56;;;;;;;7.50;3.28;;;23.80;44.30;;;;;;5013703;28;20485;-79
2022/05/16 08:44:32;;;;;;;7.47;2.70;;;23.90;43.40;;;;;;5004763;28;20273;-80
2022/05/16 08:47:09;;;;;;;8.75;3.28;;;24.00;43.40;;;;;;5013424;28;20042;-81
2022/05/16 08:49:52;;;;;;;7.03;2.80;;;24.00;43.40;;;;;;4998202;28;20061;-83
2022/05/16 08:52:40;;;;;;;10.23;4.17;;;24.00;42.80;;;;;;5009904;28;20330;-78
2022/05/16 08:55:24;;;;;;;8.77;3.00;;;24.00;43.20;;;;;;4979533;28;20495;-78
2022/05/16 08:57:59;;;;;;;10.05;3.47;;;24.10;42.60;;;;;;4976897;28;20062;-77
2022/05/16 09:00:41;;;;;;;8.38;3.15;;;24.20;43.10;;;;;;4987337;28;20046;-77
2022/05/16 09:03:13;;;;;;;9.95;3.25;;;24.30;43.40;;;;;;4998303;28;20068;-76
2022/05/16 10:08:47;;;;;;;5.40;3.08;;;24.60;42.40;;;;;;5098212;27;20167;-81
2022/05/16 10:11:24;;;;;;;6.70;3.25;;;24.50;43.10;;;;;;5123005;28;20063;-81
2022/05/16 10:13:50;;;;;;;11.90;3.75;;;24.40;43.40;;;;;;5088932;28;20044;-81
2022/05/16 10:16:17;;;;;;;10.75;3.85;;;24.40;44.30;;;;;;5091554;28;20044;-81
2022/05/16 10:18:49;;;;;;;7.30;3.55;;;24.30;46.10;;;;;;5090386;28;20119;-81
2022/05/16 10:21:33;;;;;;;8.15;3.45;;;24.30;46.30;;;;;;5090824;28;20036;-80
2022/05/16 10:23:59;;;;;;;9.30;4.32;;;24.10;46.20;;;;;;5123693;28;20430;-81
2022/05/16 10:26:30;;;;;;;6.75;3.42;;;24.10;46.00;;;;;;5091759;28;20090;-81
2022/05/16 10:29:10;;;;;;;9.45;3.25;;;24.00;46.70;;;;;;5123932;28;20135;-82
2022/05/16 10:34:56;;;;;;;9.10;3.55;;;24.00;47.10;;;;;;5029443;28;20057;-82
2022/05/16 10:37:23;;;;;;;7.53;3.92;;;24.00;47.10;;;;;;5031428;28;20083;-82
2022/05/16 10:39:56;;;;;;;9.77;4.43;;;24.00;47.10;;;;;;5045505;28;20527;-82
2022/05/16 10:42:36;;;;;;;9.15;3.55;;;24.00;48.20;;;;;;5028688;28;20114;-82
2022/05/16 10:45:17;;;;;;;10.82;4.05;;;24.00;48.80;;;;;;5046572;28;20049;-80
2022/05/16 10:47:58;;;;;;;11.13;4.13;;;23.90;49.40;;;;;;5047806;28;20056;-82
2022/05/16 10:50:46;;;;;;;7.22;3.40;;;23.90;48.90;;;;;;5042924;28;20042;-82
2022/05/16 10:53:38;;;;;;;9.10;4.22;;;23.90;49.70;;;;;;5028529;28;20087;-83
2022/05/16 10:56:41;;;;;;;6.55;3.85;;;23.80;50.50;;;;;;4986804;28;20082;-82
2022/05/16 10:59:31;;;;;;;7.68;3.63;;;23.80;51.30;;;;;;5008484;28;20061;-82
2022/05/16 11:02:25;;;;;;;7.10;3.97;;;23.80;51.40;;;;;;4991915;28;20067;-82
2022/05/16 11:05:25;;;;;;;8.93;3.67;;;23.90;51.10;;;;;;5008312;28;20468;-81
2022/05/16 11:08:01;;;;;;;9.18;4.85;;;23.90;51.10;;;;;;5007621;28;20058;-82
2022/05/16 11:10:41;;;;;;;7.00;4.03;;;23.90;50.70;;;;;;5013522;28;20052;-82
2022/05/16 11:13:16;;;;;;;9.57;4.25;;;24.00;51.10;;;;;;5027321;28;20064;-82
2022/05/16 11:15:53;;;;;;;9.75;5.13;;;24.00;50.80;;;;;;5011352;28;20046;-82
2022/05/16 11:18:50;;;;;;;10.82;5.70;;;24.10;51.20;;;;;;5006539;28;20119;-81
2022/05/16 11:21:30;;;;;;;9.18;4.35;;;24.10;50.50;;;;;;5006244;28;20088;-81
2022/05/16 11:24:17;;;;;;;7.13;3.65;;;24.10;50.80;;;;;;4997735;28;20371;-81
2022/05/16 11:27:11;;;;;;;7.70;3.95;;;24.20;50.70;;;;;;5021973;28;20129;-82
2022/05/16 11:29:39;;;;;;;6.15;3.08;;;24.30;50.00;;;;;;4969660;28;20091;-82
2022/05/16 11:32:40;;;;;;;6.10;2.88;;;24.30;48.80;;;;;;4950763;28;20061;-82
2022/05/16 11:35:09;;;;;;;7.75;3.03;;;24.40;48.60;;;;;;4941869;29;20156;-82
2022/05/16 11:38:03;;;;;;;7.53;3.10;;;24.40;48.30;;;;;;4954635;29;20051;-82
2022/05/16 11:40:58;;;;;;;5.78;2.85;;;24.50;48.20;;;;;;4955546;29;20063;-81
2022/05/16 11:43:28;;;;;;;5.05;3.00;;;24.50;48.00;;;;;;4938425;29;20059;-81
2022/05/16 11:46:18;;;;;;;7.70;3.65;;;24.50;48.20;;;;;;4955759;29;20062;-81
2022/05/16 11:49:02;;;;;;;6.45;3.78;;;24.70;48.50;;;;;;4955515;29;20554;-82
2022/05/16 11:51:36;;;;;;;8.93;3.50;;;24.70;48.00;;;;;;4940643;29;20152;-81
2022/05/16 11:54:04;;;;;;;8.10;3.97;;;24.80;48.00;;;;;;4958049;29;20067;-81
2022/05/16 12:02:34;;;;;;;7.95;4.18;;;25.00;48.10;;;;;;4954893;29;20506;-82
2022/05/16 12:05:08;;;;;;;8.63;4.25;;;25.10;47.70;;;;;;4955278;29;20059;-81
2022/05/16 12:07:34;;;;;;;5.57;3.25;;;25.10;47.70;;;;;;4957137;28;20573;-80
2022/05/16 12:10:16;;;;;;;7.47;3.38;;;25.20;47.20;;;;;;4974695;28;20086;-81
2022/05/16 12:12:46;;;;;;;6.68;3.45;;;25.30;47.10;;;;;;5054753;28;20048;-81
2022/05/16 12:15:14;;;;;;;5.57;3.17;;;25.40;47.00;;;;;;5074765;28;20047;-81
2022/05/16 12:17:57;;;;;;;6.97;3.83;;;25.40;46.40;;;;;;5066123;28;20074;-81
2022/05/16 12:20:42;;;;;;;8.88;3.63;;;25.50;46.00;;;;;;5040827;28;20080;-81
2022/05/16 12:23:10;;;;;;;10.13;4.25;;;25.70;46.60;;;;;;5075105;28;20620;-82
2022/05/16 12:25:37;;;;;;;6.10;4.03;;;25.70;46.50;;;;;;5090599;28;20123;-81
2022/05/16 12:28:29;;;;;;;7.50;3.80;;;25.70;46.60;;;;;;5062075;28;20055;-81
2022/05/16 12:31:00;;;;;;;7.22;4.53;;;25.80;46.80;;;;;;5056384;28;20518;-81
2022/05/16 12:33:43;;;;;;;6.72;4.00;;;25.90;46.30;;;;;;5056894;28;20044;-80
2022/05/16 12:36:21;;;;;;;6.93;4.93;;;25.90;46.50;;;;;;5072236;28;20479;-80
2022/05/16 12:38:58;;;;;;;7.75;5.25;;;25.90;46.40;;;;;;5082000;28;20045;-80
2022/05/16 12:41:47;;;;;;;8.60;5.13;;;25.90;46.60;;;;;;5074882;28;20484;-80
2022/05/16 12:44:23;;;;;;;8.10;4.72;;;26.00;46.60;;;;;;5070834;28;20054;-81
2022/05/16 12:47:01;;;;;;;8.10;5.07;;;26.00;46.80;;;;;;5091511;28;20036;-80
2022/05/16 12:49:50;;;;;;;9.60;5.60;;;25.90;46.80;;;;;;5056644;28;20049;-82
2022/05/16 12:52:31;;;;;;;8.90;4.80;;;26.00;46.90;;;;;;5074205;28;20114;-82
2022/05/16 12:55:24;;;;;;;9.63;5.28;;;25.90;47.00;;;;;;5094538;28;20058;-83
2022/05/16 12:58:14;;;;;;;8.20;4.07;;;25.90;46.70;;;;;;5090928;28;20441;-82
2022/05/16 13:00:57;;;;;;;12.25;5.18;;;25.90;46.90;;;;;;5073856;28;20051;-81
2022/05/16 13:03:43;;;;;;;12.23;6.90;;;25.90;47.30;;;;;;5073790;28;20082;-82
2022/05/16 13:06:40;;;;;;;15.27;8.65;;;25.80;46.90;;;;;;5056455;28;20044;-82
2022/05/16 13:09:29;;;;;;;13.48;8.70;;;25.80;46.80;;;;;;5045726;28;20083;-81
2022/05/16 13:12:00;;;;;;;13.05;9.35;;;25.70;46.80;;;;;;5033405;28;20049;-81
2022/05/16 13:14:40;;;;;;;12.35;9.30;;;25.70;46.90;;;;;;5025542;28;20061;-81
2022/05/16 13:17:25;;;;;;;11.65;7.97;;;25.60;47.00;;;;;;5049786;28;20053;-81
2022/05/16 13:19:54;;;;;;;8.90;7.97;;;25.50;47.30;;;;;;5033865;28;20053;-81
2022/05/16 13:22:22;;;;;;;14.20;8.82;;;25.50;47.20;;;;;;5036115;28;20087;-82
2022/05/16 13:24:53;;;;;;;9.30;8.38;;;25.50;48.00;;;;;;5054545;28;20051;-81
2022/05/16 13:30:15;;;;;;;12.35;8.57;;;25.50;48.00;;;;;;5055056;28;20064;-80
2022/05/16 13:32:41;;;;;;;13.05;8.27;;;25.60;47.90;;;;;;5063364;28;20041;-81
2022/05/16 13:35:13;;;;;;;16.08;8.02;;;25.60;48.00;;;;;;5057670;28;20064;-80
2022/05/16 13:37:43;;;;;;;11.32;7.20;;;25.70;47.90;;;;;;5053951;28;20088;-81
2022/05/16 13:40:19;;;;;;;10.50;8.63;;;25.70;48.00;;;;;;5046093;28;20491;-81
2022/05/16 13:42:45;;;;;;;12.80;7.00;;;25.80;47.20;;;;;;5073809;28;20443;-80
2022/05/16 13:45:11;;;;;;;16.23;7.70;;;25.80;47.30;;;;;;5040436;28;20045;-80
2022/05/16 13:47:41;;;;;;;10.95;7.28;;;25.90;47.60;;;;;;5036000;28;20052;-80
2022/05/16 13:50:29;;;;;;;9.23;6.78;;;25.90;47.20;;;;;;5056249;28;20044;-79
2022/05/16 13:52:55;;;;;;;13.60;7.18;;;25.90;47.50;;;;;;5071468;28;20048;-80
2022/05/16 13:55:22;;;;;;;13.20;7.22;;;25.90;47.50;;;;;;5035483;28;20044;-80
2022/05/16 13:57:48;;;;;;;13.50;6.63;;;26.00;47.70;;;;;;5053913;28;20114;-79
2022/05/16 14:00:32;;;;;;;16.77;7.13;;;25.90;48.40;;;;;;5034618;28;20665;-81
2022/05/16 14:03:00;;;;;;;11.98;6.97;;;26.00;49.30;;;;;;5042501;28;20337;-81
2022/05/16 14:05:38;;;;;;;11.27;6.72;;;26.00;49.20;;;;;;5035412;28;20049;-82
2022/05/16 14:08:08;;;;;;;11.77;7.68;;;25.90;49.40;;;;;;5065736;28;20446;-80
2022/05/16 14:10:36;;;;;;;10.98;7.20;;;25.90;49.60;;;;;;5055499;28;20074;-80
2022/05/16 14:13:17;;;;;;;13.75;8.45;;;25.80;50.10;;;;;;5059175;28;20051;-80
2022/05/16 14:15:51;;;;;;;17.15;7.45;;;25.80;49.80;;;;;;5056942;28;20084;-83
2022/05/16 14:18:35;;;;;;;20.00;8.95;;;25.70;50.00;;;;;;5077105;28;20380;-81
2022/05/16 14:21:27;;;;;;;20.67;9.65;;;25.70;50.40;;;;;;5088306;28;20049;-81
2022/05/16 14:23:58;;;;;;;14.95;9.15;;;25.60;50.20;;;;;;5083402;28;20048;-85
2022/05/16 14:26:42;;;;;;;37.88;10.65;;;25.40;50.80;;;;;;5072879;28;20044;-87
2022/05/16 14:29:19;;;;;;;16.45;10.05;;;25.30;52.00;;;;;;5057179;28;20090;-85
2022/05/16 14:31:59;;;;;;;14.30;11.05;;;25.10;53.30;;;;;;5068862;28;20500;-81
2022/05/16 14:34:31;;;;;;;13.35;9.93;;;25.10;54.10;;;;;;5055605;28;20413;-81
2022/05/16 14:37:10;;;;;;;15.98;9.98;;;25.00;55.30;;;;;;5073079;28;20040;-81
2022/05/16 14:39:49;;;;;;;20.98;14.55;;;24.90;55.10;;;;;;5072887;28;20051;-81